Maple River, Iowa
Current Conditions -  °F | °C
As of 5:15 PM on Wednesday 26 Nov 2014 (Local Time) from KCIN Reporting Station
Overcast Overcast  
Wind Chill: 10°   Ceiling: 1400
Heat Index: 25°   Visibility: 10mi
Dew Point: 21°   Wind: 22mph
Humidity: 86%   Direction: 340°NNW
Pressure: 30.24"   Gusts: NA
Location:  42.08°N, 94.8598°W
Report Text: KCIN 262315Z AUTO 34019KT 10SM OVC014 M04/M06 A3024 RMK AO2
Loading
Personal Weather Stations






























Interactive Weather Map New forecast layout! Learn more

10-Day Weather Forecast

Advertisements
Track Severe Weather on mobile